TimePST,TemperatureF,Dew PointF,Humidity,Sea Level PressureIn,VisibilityMPH,Wind Direction,Wind SpeedMPH,Gust SpeedMPH,PrecipitationIn,Events,Conditions,WindDirDegrees,DateUTC
12:53 AM,61.0,45.0,56,30.11,10.0,Calm,Calm,-,N/A,,Clear,0,2013-02-03 08:53:00
1:53 AM,61.0,44.1,54,30.09,10.0,Calm,Calm,-,N/A,,Clear,0,2013-02-03 09:53:00
2:53 AM,57.9,46.0,65,30.09,10.0,Calm,Calm,-,N/A,,Mostly Cloudy,0,2013-02-03 10:53:00
3:53 AM,55.9,45.0,67,30.09,10.0,Calm,Calm,-,N/A,,Mostly Cloudy,0,2013-02-03 11:53:00
4:53 AM,57.0,44.1,62,30.08,10.0,Calm,Calm,-,N/A,,Clear,0,2013-02-03 12:53:00
5:53 AM,55.0,43.0,64,30.08,10.0,Calm,Calm,-,N/A,,Clear,0,2013-02-03 13:53:00
6:53 AM,53.1,43.0,69,30.09,10.0,Calm,Calm,-,N/A,,Clear,0,2013-02-03 14:53:00
7:53 AM,57.9,43.0,58,30.09,10.0,North,3.5,-,N/A,,Clear,350,2013-02-03 15:53:00
8:53 AM,63.0,42.1,46,30.09,10.0,West,3.5,-,N/A,,Clear,270,2013-02-03 16:53:00
9:53 AM,66.0,43.0,43,30.09,10.0,SE,3.5,-,N/A,,Clear,140,2013-02-03 17:53:00
10:53 AM,72.0,37.9,29,30.06,10.0,West,11.5,-,N/A,,Clear,280,2013-02-03 18:53:00
11:53 AM,75.0,35.1,23,30.03,10.0,NNW,16.1,24.2,N/A,,Clear,340,2013-02-03 19:53:00
12:53 PM,75.0,34.0,22,29.99,10.0,North,13.8,-,N/A,,Clear,350,2013-02-03 20:53:00
1:53 PM,75.9,33.1,21,29.98,10.0,North,10.4,-,N/A,,Clear,10,2013-02-03 21:53:00
2:53 PM,77.0,33.1,20,29.96,10.0,North,8.1,-,N/A,,Clear,360,2013-02-03 22:53:00
3:53 PM,78.1,34.0,20,29.96,10.0,NNW,5.8,-,N/A,,Clear,340,2013-02-03 23:53:00
4:53 PM,75.0,37.9,26,29.96,10.0,West,6.9,-,N/A,,Clear,260,2013-02-04 00:53:00
5:53 PM,70.0,41.0,35,29.98,10.0,ESE,5.8,-,N/A,,Clear,120,2013-02-04 01:53:00
6:53 PM,66.0,43.0,43,30.00,10.0,Calm,Calm,-,N/A,,Clear,0,2013-02-04 02:53:00
7:53 PM,63.0,44.1,50,30.01,10.0,Calm,Calm,-,N/A,,Clear,0,2013-02-04 03:53:00
8:53 PM,61.0,45.0,56,30.02,10.0,Calm,Calm,-,N/A,,Clear,0,2013-02-04 04:53:00
9:53 PM,55.9,44.1,64,30.02,10.0,Calm,Calm,-,N/A,,Clear,0,2013-02-04 05:53:00
10:53 PM,54.0,42.1,64,30.03,10.0,Calm,Calm,-,N/A,,Clear,0,2013-02-04 06:53:00
11:53 PM,54.0,37.9,55,30.02,10.0,West,3.5,-,N/A,,Clear,280,2013-02-04 07:53:00